Fountain Valley, California
Current Conditions -  °F | °C
As of 9:53 PM on Tuesday 25 Nov 2014 (Local Time) from KSNA Reporting Station
Clear Clear  
Wind Chill: 62°   Ceiling: Unl
Heat Index: 62°   Visibility: 10mi
Dew Point: 33°   Wind: 0mph
Humidity: 34%   Direction: NA
Pressure: 30.28"   Gusts: NA
Location:  33.71°N, 117.95°W
Report Text: KSNA 260553Z 00000KT 10SM CLR 17/01 A3028 RMK AO2 SLP252 T01670006 10256 20167 50001 $
Loading
Personal Weather Stations






























Interactive Weather Map New forecast layout! Learn more

10-Day Weather Forecast

Advertisements
Track Severe Weather on mobile